Tuesday, January 15, 2019, 6:01 PM CST
Back to Local

KIGQ, Chicago, Lansing Municipal Airport

Location: Chicago Heights, IL, United States Lat: 41.54
Local Time: 6:01 PM CST ( 0:01 GMT) Lon: -87.532
Time Zone: US/Central Elev: 616 ft

Show me the last for .
Show Coded

Time T Td Feel RH Dir Speed Gust Alt SLP Vis Weather Sky Remarks
2019-01-15 17:35 27 26 14 94 240° 15 20 30.09 - 7 OVC006 None
2019-01-15 17:15 27 26 16 94 230° 14 - 30.09 - 10 OVC006 None
2019-01-15 16:55 27 26 13 94 230° 18 23 30.10 - 10 OVC008 None
2019-01-15 16:35 27 26 14 93 230° 16 21 30.10 - 10 OVC008 None
2019-01-15 16:15 27 26 13 93 230° 17 22 30.11 - 10 OVC008 None
2019-01-15 15:55 28 26 13 92 230° 18 23 30.11 - 10 OVC008 None
2019-01-15 15:35 28 26 14 90 230° 17 22 30.11 - 10 OVC008 None
2019-01-15 15:15 28 26 14 92 220° 16 22 30.11 - 10 OVC008 None
2019-01-15 14:55 28 26 14 90 230° 13 23 30.12 - 10 OVC010 None
2019-01-15 14:35 28 25 14 87 230° 15 23 30.12 - 10 OVC012 None
2019-01-15 14:15 28 25 15 86 240° 17 22 30.13 - 10 OVC012 None
2019-01-15 13:55 28 25 14 87 240° 16 22 30.13 - 10 OVC012 None
2019-01-15 13:35 28 25 15 86 250° 16 21 30.13 - 10 OVC012 None
2019-01-15 13:15 28 24 14 87 240° 16 22 30.14 - 10 OVC012 None
2019-01-15 12:55 28 24 17 87 230° 12 - 30.14 - 10 OVC012 None
2019-01-15 12:35 28 24 15 88 230° 17 - 30.16 - 10 OVC012 None
2019-01-15 12:15 28 24 17 87 230° 13 - 30.17 - 10 OVC012 None
2019-01-15 11:55 27 24 15 86 250° 14 17 30.18 - 10 OVC012 6-hr Min Temp (12pm): 25.5°F
6-hr Max Temp (12pm): 27.5°F
2019-01-15 11:35 27 24 14 86 250° 14 20 30.19 - 10 OVC014 None
2019-01-15 11:15 27 24 18 88 240° 9 - 30.21 - 7 OVC014 None
2019-01-15 10:55 27 24 18 87 240° 10 - 30.22 - 7 OVC012 None
2019-01-15 10:35 27 24 16 88 230° 13 - 30.23 - 10 OVC012 None
2019-01-15 10:15 27 24 14 88 250° 12 16 30.24 - 10 BKN012 OVC017 None
2019-01-15 09:55 27 24 17 89 230° 10 - 30.24 - 7 SCT010 OVC017 None
2019-01-15 09:35 26 24 17 90 240° 9 - 30.24 - 7 SCT010 OVC017 None
2019-01-15 09:15 26 24 17 92 230° 9 - 30.23 - 4 BR SCT008 OVC017 None
2019-01-15 08:55 26 24 17 92 240° 8 - 30.23 - 5 BR BKN008 OVC017 None
2019-01-15 08:35 26 24 17 92 240° 8 - 30.23 - 5 BR OVC008 None
2019-01-15 08:15 26 24 17 92 240° 8 - 30.22 - 5 BR OVC008 None
2019-01-15 07:55 26 24 18 92 240° 7 - 30.22 - 5 BR OVC010 None
2019-01-15 07:35 26 24 18 92 250° 7 - 30.22 - 5 BR OVC010 None
2019-01-15 07:15 26 24 16 92 260° 9 - 30.22 - 7 OVC010 None
2019-01-15 06:55 26 24 17 92 250° 8 - 30.22 - 7 OVC008 None
2019-01-15 06:35 26 24 16 93 260° 9 - 30.23 - 7 OVC008 None
2019-01-15 06:15 26 24 18 93 250° 7 - 30.23 - 7 OVC008 None
2019-01-15 05:55 26 24 15 93 260° 10 - 30.23 - 7 OVC008 6-hr Min Temp (6am): 24.4°F
6-hr Max Temp (6am): 25.5°F
2019-01-15 05:35 26 24 17 93 250° 8 - 30.23 - 7 OVC008 None
2019-01-15 05:15 26 25 18 96 250° 7 - 30.23 - 4 BR OVC006 None
2019-01-15 04:55 25 24 18 96 250° 7 - 30.23 - 4 BR OVC006 None
2019-01-15 04:35 25 24 17 95 260° 8 - 30.23 - 4 BR OVC008 None
2019-01-15 04:15 25 24 18 94 240° 7 - 30.23 - 4 BR OVC008 None
2019-01-15 03:55 25 24 17 93 250° 8 - 30.24 - 5 BR BKN008 OVC014 None
2019-01-15 03:35 26 24 18 92 250° 7 - 30.24 - 7 OVC018 None
2019-01-15 03:15 25 23 17 91 250° 8 - 30.25 - 7 OVC018 None
2019-01-15 02:55 25 23 18 92 260° 6 - 30.25 - 7 OVC016 None
2019-01-15 02:35 25 23 16 92 250° 8 - 30.25 - 7 OVC013 None
2019-01-15 02:15 25 23 16 92 260° 9 - 30.25 - 7 BKN007 OVC012 None
2019-01-15 01:55 25 23 15 94 280° 9 - 30.25 - 5 BR OVC007 None
2019-01-15 01:35 25 23 15 92 260° 9 - 30.24 - 5 BR OVC007 None
2019-01-15 01:15 25 23 15 92 290° 10 - 30.24 - 5 BR OVC007 None
2019-01-15 00:55 25 23 15 92 260° 10 - 30.24 - 5 BR OVC007 None
2019-01-15 00:35 25 23 15 93 270° 9 - 30.25 - 5 BR OVC007 None
2019-01-15 00:15 25 23 17 93 280° 7 - 30.25 - 5 BR OVC007 None
2019-01-14 23:55 24 23 16 93 270° 8 - 30.26 - 5 BR OVC007 6-hr Min Temp (12am): 23.0°F
6-hr Max Temp (12am): 24.8°F
24-hr Min Temp (12am): 10.2°F
24-hr Max Temp (12am): 28.2°F
2019-01-14 23:35 24 23 15 93 280° 8 - 30.27 - 7 OVC009 None
2019-01-14 23:15 24 22 13 92 270° 12 - 30.27 - 7 OVC009 None
2019-01-14 22:55 24 22 14 92 260° 9 - 30.27 - 7 OVC009 None
2019-01-14 22:35 24 22 14 91 260° 9 - 30.28 - 7 OVC009 None
2019-01-14 22:15 23 21 12 91 270° 12 - 30.28 - 7 OVC009 None
2019-01-14 21:55 23 21 10 90 280° 10 17 30.28 - 7 OVC009 None
2019-01-14 21:35 24 22 13 91 260° 10 - 30.28 - 7 OVC009 None
2019-01-14 21:15 24 22 16 91 240° 7 - 30.28 - 7 OVC009 None
2019-01-14 20:55 24 22 15 91 230° 8 - 30.28 - 10 OVC009 None
2019-01-14 20:35 24 22 14 91 250° 9 - 30.29 - 10 OVC009 None
2019-01-14 20:15 24 22 13 91 240° 10 - 30.29 - 10 OVC009 None
2019-01-14 19:55 24 22 15 91 230° 8 - 30.29 - 10 OVC009 None
2019-01-14 19:35 24 22 14 91 240° 9 - 30.29 - 7 OVC009 None
2019-01-14 19:15 23 21 12 91 240° 12 - 30.30 - 10 OVC009 None
2019-01-14 18:55 23 21 10 91 240° 12 16 30.30 - 10 OVC009 None
2019-01-14 18:35 24 21 13 89 230° 10 - 30.30 - 10 OVC011 None
2019-01-14 18:15 25 22 15 87 250° 10 - 30.30 - 10 OVC013 None

Support USWX by starting your Amazon purchase here.